createdAt,value
2023-04-19T00:01:09.759Z,301.45
2023-04-19T00:03:40.635Z,306.45
2023-04-19T00:06:10.177Z,294.08
2023-04-19T00:08:38.322Z,291.85
2023-04-19T00:11:06.609Z,295.25
2023-04-19T00:13:37.410Z,300.40
2023-04-19T00:16:08.732Z,303.73
2023-04-19T00:18:40.975Z,287.50
2023-04-19T00:21:11.829Z,313.27
2023-04-19T00:23:41.497Z,306.63
2023-04-19T00:26:11.407Z,276.05
2023-04-19T00:28:39.624Z,286.10
2023-04-19T00:31:08.074Z,322.25
2023-04-19T00:33:36.182Z,322.80
2023-04-19T00:36:05.953Z,327.98
2023-04-19T00:38:35.358Z,323.42
2023-04-19T00:41:04.077Z,313.30
2023-04-19T00:43:33.329Z,314.77
2023-04-19T00:46:03.195Z,318.67
2023-04-19T00:48:32.692Z,317.45
2023-04-19T00:51:00.965Z,342.35
2023-04-19T00:53:32.515Z,331.88
2023-04-19T00:56:05.660Z,349.13
2023-04-19T00:58:35.554Z,362.60
2023-04-19T01:01:04.589Z,384.15
2023-04-19T01:03:36.095Z,403.33
2023-04-19T01:06:04.572Z,362.60
2023-04-19T01:08:33.990Z,362.60
2023-04-19T01:11:03.736Z,382.85
2023-04-19T01:13:34.270Z,381.25
2023-04-19T01:16:03.941Z,370.23
2023-04-19T01:18:38.619Z,395.75
2023-04-19T01:21:09.665Z,389.85
2023-04-19T01:23:40.460Z,421.67
2023-04-19T01:26:09.679Z,426.70
2023-04-19T01:28:39.095Z,413.65
2023-04-19T01:31:08.391Z,453.38
2023-04-19T01:33:38.312Z,401.15
2023-04-19T01:36:10.940Z,480.60
2023-04-19T01:38:41.672Z,421.55
2023-04-19T01:41:11.139Z,513.55
2023-04-19T01:43:40.483Z,645.35
2023-04-19T01:46:09.542Z,700.85
2023-04-19T01:48:39.532Z,821.95
2023-04-19T01:51:07.963Z,757.08
2023-04-19T01:53:38.380Z,744.15
2023-04-19T01:56:09.293Z,787.10
2023-04-19T01:58:39.814Z,758.25
2023-04-19T02:01:12.505Z,734.47
2023-04-19T02:03:40.968Z,751.58
2023-04-19T02:06:13.336Z,750.03
2023-04-19T02:08:45.077Z,706.00
2023-04-19T02:11:15.519Z,681.90
2023-04-19T02:13:45.159Z,700.15
2023-04-19T02:16:13.256Z,684.05
2023-04-19T02:18:41.658Z,655.03
2023-04-19T02:21:10.917Z,689.38
2023-04-19T02:23:40.374Z,652.53
2023-04-19T02:26:11.398Z,674.83
2023-04-19T02:28:44.807Z,626.55
2023-04-19T02:31:14.286Z,644.10
2023-04-19T02:33:42.535Z,745.38
2023-04-19T02:36:12.141Z,806.92
2023-04-19T02:38:40.264Z,766.33
2023-04-19T02:41:08.529Z,752.22
2023-04-19T02:43:40.781Z,752.55
2023-04-19T02:46:11.903Z,766.30
2023-04-19T02:48:40.060Z,740.42
2023-04-19T02:51:08.566Z,743.80
2023-04-19T02:53:41.058Z,762.47
2023-04-19T02:56:10.787Z,744.20
2023-04-19T02:58:41.825Z,719.53
2023-04-19T03:01:11.609Z,679.78
2023-04-19T03:03:39.888Z,675.97
2023-04-19T03:06:09.961Z,676.47
2023-04-19T03:08:39.341Z,699.92
2023-04-19T03:11:08.667Z,677.50
2023-04-19T03:13:39.126Z,658.83
2023-04-19T03:16:09.704Z,673.72
2023-04-19T03:18:42.106Z,696.88
2023-04-19T03:21:11.167Z,735.53
2023-04-19T03:23:50.427Z,724.90
2023-04-19T03:26:19.171Z,770.10
2023-04-19T03:28:49.714Z,764.13
2023-04-19T03:31:23.643Z,731.63
2023-04-19T03:33:55.901Z,736.47
2023-04-19T03:36:31.013Z,731.83
2023-04-19T03:39:01.539Z,706.03
2023-04-19T03:41:31.415Z,730.28
2023-04-19T03:44:22.189Z,695.33
2023-04-19T03:46:51.672Z,711.92
2023-04-19T03:49:27.146Z,748.45
2023-04-19T03:52:04.464Z,753.38
2023-04-19T03:54:36.180Z,724.72
2023-04-19T03:57:09.032Z,748.65
2023-04-19T03:59:41.821Z,743.08
2023-04-19T04:02:10.934Z,696.33
2023-04-19T04:04:43.025Z,681.75
2023-04-19T04:07:12.490Z,724.97
2023-04-19T04:09:40.882Z,691.25
2023-04-19T04:12:10.563Z,653.42
2023-04-19T04:14:41.061Z,637.20
2023-04-19T04:17:12.673Z,602.85
2023-04-19T04:19:43.327Z,624.70
2023-04-19T04:22:12.535Z,633.38
2023-04-19T04:24:45.317Z,611.13
2023-04-19T04:27:23.978Z,645.10
2023-04-19T04:29:56.791Z,628.53
2023-04-19T04:32:26.401Z,625.83
2023-04-19T04:35:02.433Z,695.08
2023-04-19T04:37:41.552Z,660.92
2023-04-19T04:40:13.336Z,659.72
2023-04-19T04:42:41.456Z,644.00
2023-04-19T04:45:12.975Z,670.10
2023-04-19T04:47:43.745Z,659.10
2023-04-19T04:50:14.758Z,710.28
2023-04-19T04:52:43.111Z,654.95
2023-04-19T04:55:17.940Z,711.70
2023-04-19T04:57:48.983Z,686.08
2023-04-19T05:00:30.010Z,661.53
2023-04-19T05:03:05.293Z,681.80
2023-04-19T05:05:41.848Z,654.08
2023-04-19T05:08:12.085Z,588.33
2023-04-19T05:10:40.661Z,602.20
2023-04-19T05:13:08.913Z,612.47
2023-04-19T05:15:39.684Z,583.53
2023-04-19T05:18:07.840Z,575.33
2023-04-19T05:20:35.877Z,562.33
2023-04-19T05:23:16.040Z,618.65
2023-04-19T05:25:44.902Z,624.28
2023-04-19T05:28:14.917Z,615.83
2023-04-19T05:30:53.724Z,585.95
2023-04-19T05:33:26.922Z,607.97
2023-04-19T05:35:58.035Z,613.58
2023-04-19T05:38:29.920Z,561.17
2023-04-19T05:41:00.414Z,544.30
2023-04-19T05:43:28.858Z,630.45
2023-04-19T05:45:58.334Z,675.35
2023-04-19T05:48:28.879Z,664.58
2023-04-19T05:51:18.956Z,642.70
2023-04-19T05:53:58.544Z,608.60
2023-04-19T05:56:27.867Z,639.35
2023-04-19T05:58:58.615Z,651.67
2023-04-19T06:01:28.374Z,626.70
2023-04-19T06:03:59.398Z,601.65
2023-04-19T06:06:29.251Z,606.20
2023-04-19T06:09:00.170Z,610.90
2023-04-19T06:11:38.842Z,611.78
2023-04-19T06:14:15.215Z,645.55
2023-04-19T06:16:45.783Z,639.20
2023-04-19T06:19:15.252Z,607.40
2023-04-19T06:21:44.483Z,703.53
2023-04-19T06:24:15.753Z,739.35
2023-04-19T06:26:47.590Z,712.45
2023-04-19T06:29:16.869Z,680.20
2023-04-19T06:31:46.189Z,690.13
2023-04-19T06:34:17.036Z,670.65
2023-04-19T06:36:46.521Z,643.88
2023-04-19T06:39:16.396Z,650.25
2023-04-19T06:41:44.440Z,668.03
2023-04-19T06:44:18.754Z,684.88
2023-04-19T06:46:48.052Z,676.20
2023-04-19T06:49:17.379Z,656.65
2023-04-19T06:51:46.862Z,661.22
2023-04-19T06:54:18.048Z,656.35
2023-04-19T06:56:50.443Z,675.88
2023-04-19T06:59:22.056Z,624.33
2023-04-19T07:01:51.644Z,645.40
2023-04-19T07:04:21.702Z,742.78
2023-04-19T07:06:51.345Z,750.25
2023-04-19T07:09:35.449Z,738.55
2023-04-19T07:12:10.720Z,794.53
2023-04-19T07:14:40.020Z,809.10
2023-04-19T07:17:08.060Z,851.55
2023-04-19T07:19:36.784Z,561.10
2023-04-19T07:22:06.428Z,736.63
2023-04-19T07:24:41.529Z,656.83
2023-04-19T07:27:09.671Z,691.88
2023-04-19T07:29:37.875Z,814.72
2023-04-19T07:32:06.456Z,908.00
2023-04-19T07:34:35.846Z,967.05
2023-04-19T07:37:03.886Z,823.30
2023-04-19T07:39:32.039Z,834.35
2023-04-19T07:42:01.736Z,920.42
2023-04-19T07:44:29.842Z,976.30
2023-04-19T07:46:59.120Z,922.65
2023-04-19T07:49:27.262Z,777.95
2023-04-19T07:51:56.564Z,999.90
2023-04-19T07:54:25.903Z,659.08
2023-04-19T07:56:54.004Z,914.97
2023-04-19T07:59:24.664Z,716.10
2023-04-19T08:01:54.102Z,658.42
2023-04-19T08:04:23.773Z,645.60
2023-04-19T08:06:52.938Z,651.30
2023-04-19T08:09:22.250Z,988.97
2023-04-19T08:11:51.490Z,929.17
2023-04-19T08:14:34.804Z,999.90
2023-04-19T08:17:26.731Z,986.25
2023-04-19T08:19:59.435Z,899.33
2023-04-19T08:22:28.735Z,999.90
2023-04-19T08:24:58.002Z,967.28
2023-04-19T08:27:27.270Z,999.90
2023-04-19T08:29:55.387Z,960.35
2023-04-19T08:32:26.006Z,997.05
2023-04-19T08:34:55.588Z,999.90
2023-04-19T08:37:23.769Z,999.90
2023-04-19T08:39:53.415Z,999.90
2023-04-19T08:42:32.911Z,999.90
2023-04-19T08:47:56.379Z,999.90
2023-04-19T08:50:38.712Z,999.90
2023-04-19T08:53:25.534Z,998.00
2023-04-19T09:01:06.365Z,957.97
2023-04-19T09:03:47.735Z,949.22
2023-04-19T09:06:27.240Z,887.00
2023-04-19T09:09:29.211Z,899.22
2023-04-19T09:12:16.274Z,973.53
2023-04-19T09:17:21.329Z,999.90
2023-04-19T09:19:53.302Z,999.90
2023-04-19T09:22:22.635Z,999.90
2023-04-19T09:27:29.202Z,999.90
2023-04-19T09:30:00.562Z,999.90
2023-04-19T09:32:46.082Z,999.90
2023-04-19T09:35:17.158Z,999.90
2023-04-19T09:38:08.908Z,999.90
2023-04-19T09:40:38.356Z,999.90
2023-04-19T09:43:33.020Z,999.90
2023-04-19T09:45:57.397Z,727.22
2023-04-19T09:48:26.742Z,784.00
2023-04-19T09:51:04.561Z,742.25
2023-04-19T09:53:36.830Z,999.90
2023-04-19T09:56:09.596Z,999.90
2023-04-19T09:58:51.227Z,999.90
2023-04-19T10:01:26.755Z,999.90
2023-04-19T10:04:06.226Z,999.90
2023-04-19T10:07:06.910Z,999.90
2023-04-19T10:09:49.470Z,999.90
2023-04-19T10:17:28.304Z,999.90
2023-04-19T10:20:08.014Z,999.90
2023-04-19T10:22:38.840Z,999.90
2023-04-19T10:25:14.498Z,999.90
2023-04-19T10:27:48.942Z,999.90
2023-04-19T10:30:20.523Z,999.90
2023-04-19T10:32:56.298Z,999.90
2023-04-19T10:35:29.351Z,999.90
2023-04-19T10:38:12.503Z,999.90
2023-04-19T10:40:57.043Z,999.90
2023-04-19T10:43:26.867Z,999.90
2023-04-19T10:45:59.908Z,999.90
2023-04-19T10:48:38.689Z,999.90
2023-04-19T10:51:16.685Z,999.90
2023-04-19T10:53:53.961Z,999.90
2023-04-19T10:57:06.241Z,999.90
2023-04-19T10:59:36.621Z,999.90
2023-04-19T11:02:06.365Z,999.90
2023-04-19T11:05:05.287Z,999.90
2023-04-19T11:07:42.612Z,943.00
2023-04-19T11:10:13.797Z,846.72
2023-04-19T11:12:46.445Z,647.22
2023-04-19T11:15:14.522Z,855.83
2023-04-19T11:17:42.868Z,761.35
2023-04-19T11:20:15.741Z,677.88
2023-04-19T11:22:46.709Z,999.90
2023-04-19T11:25:20.414Z,979.03
2023-04-19T11:27:50.815Z,941.13
2023-04-19T11:30:23.974Z,992.72
2023-04-19T11:32:54.889Z,434.05
2023-04-19T11:35:27.688Z,574.53
2023-04-19T11:37:57.456Z,796.35
2023-04-19T11:40:28.862Z,999.90
2023-04-19T11:43:00.510Z,999.90
2023-04-19T11:45:35.559Z,999.90
2023-04-19T11:48:07.444Z,999.90
2023-04-19T11:50:39.470Z,999.90
2023-04-19T11:53:18.271Z,999.90
2023-04-19T11:55:53.364Z,999.90
2023-04-19T11:58:29.053Z,999.90
2023-04-19T12:01:01.703Z,999.90
2023-04-19T12:03:31.575Z,895.55
2023-04-19T12:06:03.422Z,592.72
2023-04-19T12:08:34.059Z,970.00
2023-04-19T12:11:06.654Z,503.90
2023-04-19T12:13:36.369Z,843.55
2023-04-19T12:16:07.468Z,958.92
2023-04-19T12:18:50.155Z,999.90
2023-04-19T12:21:30.039Z,999.90
2023-04-19T12:24:01.237Z,722.17
2023-04-19T12:26:31.198Z,999.90
2023-04-19T12:29:04.223Z,999.90
2023-04-19T12:31:33.907Z,999.90
2023-04-19T12:34:03.289Z,999.90
2023-04-19T12:36:33.001Z,999.90
2023-04-19T12:39:01.121Z,999.90
2023-04-19T12:41:32.120Z,999.90
2023-04-19T12:44:01.444Z,999.90
2023-04-19T12:48:57.713Z,844.45
2023-04-19T12:51:25.816Z,999.90
2023-04-19T12:53:55.830Z,999.90
2023-04-19T12:56:23.859Z,999.90
2023-04-19T12:58:55.926Z,999.90
2023-04-19T13:01:24.595Z,999.90
2023-04-19T13:03:55.545Z,999.90
2023-04-19T13:06:26.294Z,999.90
2023-04-19T13:09:00.462Z,999.90
2023-04-19T13:11:29.483Z,999.90
2023-04-19T13:14:00.162Z,999.90
2023-04-19T13:16:29.376Z,937.15
2023-04-19T13:18:59.975Z,506.83
2023-04-19T13:21:29.683Z,863.85
2023-04-19T13:24:01.139Z,930.15
2023-04-19T13:26:29.587Z,999.90
2023-04-19T13:29:00.218Z,994.83
2023-04-19T13:31:28.777Z,999.90
2023-04-19T13:33:57.245Z,749.28
2023-04-19T13:36:27.306Z,931.85
2023-04-19T13:38:56.760Z,993.22
2023-04-19T13:41:26.594Z,999.90
2023-04-19T13:43:55.927Z,999.90
2023-04-19T13:46:25.425Z,999.90
2023-04-19T13:48:54.754Z,862.53
2023-04-19T13:51:22.924Z,999.90
2023-04-19T13:53:53.404Z,639.38
2023-04-19T13:56:21.627Z,933.30
2023-04-19T13:58:49.767Z,999.22
2023-04-19T14:03:51.401Z,808.85
2023-04-19T14:06:19.813Z,846.53
2023-04-19T14:08:50.188Z,717.42
2023-04-19T14:11:20.529Z,692.72
2023-04-19T14:13:49.803Z,583.70
2023-04-19T14:16:19.177Z,374.58
2023-04-19T14:18:48.686Z,632.58
2023-04-19T14:21:19.536Z,423.88
2023-04-19T14:23:47.708Z,436.20
2023-04-19T14:26:16.986Z,549.55
2023-04-19T14:28:45.110Z,688.42
2023-04-19T14:31:13.272Z,647.40
2023-04-19T14:33:42.518Z,980.80
2023-04-19T14:36:13.243Z,999.90
2023-04-19T14:38:41.310Z,708.70
2023-04-19T14:41:11.899Z,802.88
2023-04-19T14:43:39.957Z,686.13
2023-04-19T14:46:09.181Z,914.90
2023-04-19T14:48:37.292Z,774.90
2023-04-19T14:51:05.843Z,795.08
2023-04-19T14:53:36.538Z,728.35
2023-04-19T14:56:06.796Z,682.50
2023-04-19T14:58:36.014Z,612.20
2023-04-19T15:01:13.193Z,340.88
2023-04-19T15:03:41.622Z,724.95
2023-04-19T15:06:11.266Z,695.00
2023-04-19T15:08:43.101Z,406.48
2023-04-19T15:11:12.484Z,672.30
2023-04-19T15:13:41.408Z,724.90
2023-04-19T15:16:11.953Z,685.65
2023-04-19T15:18:41.370Z,379.42
2023-04-19T15:21:10.609Z,249.63
2023-04-19T15:23:38.632Z,14.93
2023-04-19T15:26:08.124Z,17.60
2023-04-19T15:28:36.721Z,12.20
2023-04-19T15:31:09.372Z,34.53
2023-04-19T15:33:38.966Z,138.88
2023-04-19T15:36:09.749Z,14.98
2023-04-19T15:38:38.041Z,14.18
2023-04-19T15:41:09.878Z,24.05
2023-04-19T15:43:39.268Z,10.57
2023-04-19T15:46:08.664Z,134.90
2023-04-19T15:48:36.714Z,138.27
2023-04-19T15:51:06.244Z,141.70
2023-04-19T15:53:34.294Z,140.68
2023-04-19T15:56:02.512Z,136.77
2023-04-19T15:58:33.088Z,85.38
2023-04-19T16:01:03.899Z,27.27
2023-04-19T16:03:33.203Z,16.45
2023-04-19T16:06:03.815Z,173.05
2023-04-19T16:08:31.896Z,29.65
2023-04-19T16:11:01.534Z,15.07
2023-04-19T16:13:32.165Z,122.72
2023-04-19T16:16:03.305Z,559.20
2023-04-19T16:18:32.570Z,436.92
2023-04-19T16:21:01.770Z,415.13
2023-04-19T16:23:31.047Z,417.90
2023-04-19T16:26:00.427Z,86.90
2023-04-19T16:28:31.330Z,139.65
2023-04-19T16:31:00.787Z,140.00
2023-04-19T16:33:28.889Z,137.88
2023-04-19T16:35:58.205Z,135.68
2023-04-19T16:38:27.443Z,135.10
2023-04-19T16:40:55.809Z,16.95
2023-04-19T16:45:54.373Z,355.48
2023-04-19T16:48:25.253Z,605.97
2023-04-19T16:50:54.453Z,561.75
2023-04-19T16:53:23.726Z,433.98
2023-04-19T16:55:51.745Z,354.63
2023-04-19T16:58:21.027Z,241.00
2023-04-19T17:00:49.165Z,63.17
2023-04-19T17:03:17.708Z,234.93
2023-04-19T17:05:49.572Z,19.65
2023-04-19T17:08:18.953Z,83.43
2023-04-19T17:10:46.957Z,18.40
2023-04-19T17:13:16.266Z,13.48
2023-04-19T17:15:45.708Z,12.68
2023-04-19T17:18:15.007Z,44.45
2023-04-19T17:20:43.295Z,142.52
2023-04-19T17:23:12.801Z,141.35
2023-04-19T17:25:42.312Z,133.13
2023-04-19T17:28:11.846Z,136.75
2023-04-19T17:30:41.089Z,135.38
2023-04-19T17:33:10.951Z,280.67
2023-04-19T17:35:41.607Z,134.43
2023-04-19T17:38:12.561Z,88.60
2023-04-19T17:40:43.082Z,135.18
2023-04-19T17:43:11.518Z,48.67
2023-04-19T17:45:41.022Z,87.95
2023-04-19T17:48:09.075Z,138.55
2023-04-19T17:50:38.356Z,67.22
2023-04-19T17:53:07.760Z,36.60
2023-04-19T17:55:38.640Z,125.63
2023-04-19T17:58:07.966Z,111.00
2023-04-19T18:00:38.435Z,79.78
2023-04-19T18:03:10.853Z,129.20
2023-04-19T18:05:39.392Z,21.73
2023-04-19T18:08:07.647Z,670.40
2023-04-19T18:10:37.534Z,501.35
2023-04-19T18:13:09.334Z,564.10
2023-04-19T18:15:38.560Z,288.45
2023-04-19T18:18:08.373Z,400.98
2023-04-19T18:20:37.742Z,379.35
2023-04-19T18:23:08.300Z,406.35
2023-04-19T18:25:37.834Z,353.67
2023-04-19T18:28:08.493Z,593.28
2023-04-19T18:30:37.713Z,440.40
2023-04-19T18:33:08.228Z,93.13
2023-04-19T18:35:36.912Z,251.80
2023-04-19T18:40:35.359Z,129.10
2023-04-19T18:43:04.587Z,21.13
2023-04-19T18:45:34.012Z,699.72
2023-04-19T18:48:03.557Z,560.10
2023-04-19T18:50:32.390Z,15.13
2023-04-19T18:53:01.692Z,325.17
2023-04-19T18:55:31.926Z,38.83
2023-04-19T18:58:01.609Z,130.52
2023-04-19T19:03:01.858Z,61.50
2023-04-19T19:05:34.777Z,661.70
2023-04-19T19:08:05.692Z,123.20
2023-04-19T19:11:06.711Z,15.05
2023-04-19T19:13:23.282Z,121.72
2023-04-19T19:15:52.717Z,515.08
2023-04-19T19:18:24.368Z,16.67
2023-04-19T19:20:52.487Z,15.23
2023-04-19T19:23:32.163Z,23.25
2023-04-19T19:26:04.270Z,367.17
2023-04-19T19:28:35.005Z,538.30
2023-04-19T19:31:03.543Z,319.83
2023-04-19T19:33:38.910Z,551.78
2023-04-19T19:36:09.493Z,599.53
2023-04-19T19:41:51.491Z,462.65
2023-04-19T19:43:57.787Z,239.32
2023-04-19T19:46:30.744Z,358.33
2023-04-19T19:49:00.651Z,425.27
2023-04-19T19:51:52.944Z,416.40
2023-04-19T19:54:18.786Z,554.97
2023-04-19T19:57:21.827Z,218.50
2023-04-19T19:59:36.422Z,113.53
2023-04-19T20:02:04.584Z,131.88
2023-04-19T20:04:37.357Z,125.40
2023-04-19T20:09:38.322Z,11.70
2023-04-19T20:12:07.928Z,11.23
2023-04-19T20:14:39.671Z,436.35
2023-04-19T20:17:10.275Z,512.63
2023-04-19T20:19:39.752Z,354.15
2023-04-19T20:22:09.129Z,362.77
2023-04-19T20:24:41.617Z,376.38
2023-04-19T20:27:10.876Z,289.38
2023-04-19T20:29:39.151Z,290.27
2023-04-19T20:32:09.733Z,355.83
2023-04-19T20:34:39.697Z,354.20
2023-04-19T20:37:09.674Z,396.95
2023-04-19T20:39:39.027Z,375.20
2023-04-19T20:42:07.669Z,361.48
2023-04-19T20:44:37.383Z,350.83
2023-04-19T20:47:08.894Z,329.88
2023-04-19T20:49:41.978Z,328.17
2023-04-19T20:52:11.262Z,356.27
2023-04-19T20:54:42.130Z,384.80
2023-04-19T20:57:10.777Z,422.00
2023-04-19T20:59:42.086Z,327.30
2023-04-19T21:02:10.566Z,555.50
2023-04-19T21:04:40.482Z,414.35
2023-04-19T21:07:08.640Z,371.42
2023-04-19T21:09:37.060Z,371.67
2023-04-19T21:12:05.598Z,368.63
2023-04-19T21:14:36.282Z,382.10
2023-04-19T21:17:05.277Z,398.77
2023-04-19T21:19:34.651Z,425.95
2023-04-19T21:22:05.970Z,381.73
2023-04-19T21:24:34.569Z,378.10
2023-04-19T21:27:02.996Z,444.95
2023-04-19T21:29:32.219Z,354.10
2023-04-19T21:32:01.520Z,337.77
2023-04-19T21:34:29.628Z,342.30
2023-04-19T21:36:58.005Z,354.65
2023-04-19T21:39:28.685Z,359.77
2023-04-19T21:41:57.496Z,338.67
2023-04-19T21:44:25.577Z,357.67
2023-04-19T21:46:54.941Z,334.50
2023-04-19T21:49:23.008Z,322.20
2023-04-19T21:51:52.760Z,337.60
2023-04-19T21:54:31.034Z,323.73
2023-04-19T21:57:05.676Z,333.45
2023-04-19T21:59:36.516Z,251.80
2023-04-19T22:02:06.180Z,316.85
2023-04-19T22:04:34.368Z,331.85
2023-04-19T22:07:04.088Z,298.58
2023-04-19T22:09:32.636Z,332.60
2023-04-19T22:12:01.633Z,276.15
2023-04-19T22:14:32.243Z,292.52
2023-04-19T22:17:03.482Z,284.27
2023-04-19T22:19:32.798Z,301.92
2023-04-19T22:22:03.291Z,286.25
2023-04-19T22:24:31.390Z,294.65
2023-04-19T22:27:01.812Z,311.23
2023-04-19T22:29:29.894Z,308.27
2023-04-19T22:31:59.880Z,316.80
2023-04-19T22:34:29.219Z,302.15
2023-04-19T22:36:57.380Z,289.90
2023-04-19T22:39:26.513Z,312.63
2023-04-19T22:41:56.370Z,293.10
2023-04-19T22:44:25.602Z,321.27
2023-04-19T22:46:56.085Z,324.42
2023-04-19T22:49:26.743Z,320.27
2023-04-19T22:51:56.286Z,307.52
2023-04-19T22:54:25.812Z,329.20
2023-04-19T22:56:53.959Z,317.92
2023-04-19T22:59:22.019Z,317.48
2023-04-19T23:01:51.467Z,311.98
2023-04-19T23:04:19.910Z,341.15
2023-04-19T23:06:49.399Z,346.23
2023-04-19T23:09:18.921Z,348.45
2023-04-19T23:11:49.071Z,333.50
2023-04-19T23:14:19.014Z,334.83
2023-04-19T23:19:16.418Z,319.05
2023-04-19T23:21:44.711Z,340.80
2023-04-19T23:24:15.303Z,333.13
2023-04-19T23:26:43.342Z,326.90
2023-04-19T23:29:11.398Z,352.35
2023-04-19T23:31:40.657Z,333.60
2023-04-19T23:34:08.738Z,323.98
2023-04-19T23:36:36.824Z,343.60
2023-04-19T23:39:06.329Z,357.65
2023-04-19T23:41:35.831Z,352.48
2023-04-19T23:44:05.171Z,362.13
2023-04-19T23:46:33.188Z,346.20
2023-04-19T23:49:01.399Z,337.10
2023-04-19T23:51:29.476Z,354.27
2023-04-19T23:53:58.870Z,359.42
2023-04-19T23:56:26.906Z,356.73
2023-04-19T23:58:58.762Z,352.10
